createdAt,value
2023-02-09T00:01:29.472Z,103285.91
2023-02-09T00:03:59.452Z,103272.94
2023-02-09T00:06:30.050Z,103278.16
2023-02-09T00:08:59.802Z,103270.19
2023-02-09T00:11:49.693Z,103278.94
2023-02-09T00:14:21.718Z,103280.66
2023-02-09T00:16:51.950Z,103278.97
2023-02-09T00:19:22.071Z,103265.16
2023-02-09T00:21:49.985Z,103264.34
2023-02-09T00:24:18.525Z,103260.75
2023-02-09T00:26:46.891Z,103259.09
2023-02-09T00:29:15.227Z,103265.06
2023-02-09T00:31:43.977Z,103265.16
2023-02-09T00:34:12.164Z,103268.53
2023-02-09T00:36:40.156Z,103269.44
2023-02-09T00:39:08.396Z,103276.31
2023-02-09T00:41:55.724Z,103271.94
2023-02-09T00:44:23.711Z,103283.22
2023-02-09T00:46:52.348Z,103277.25
2023-02-09T00:49:21.328Z,103275.59
2023-02-09T00:51:49.921Z,103277.31
2023-02-09T00:54:18.003Z,103270.50
2023-02-09T00:56:47.330Z,103270.50
2023-02-09T00:59:15.578Z,103275.81
2023-02-09T01:01:43.737Z,103281.69
2023-02-09T01:04:11.316Z,103278.19
2023-02-09T01:06:38.790Z,103271.41
2023-02-09T01:09:06.913Z,103273.88
2023-02-09T01:11:34.568Z,103275.63
2023-02-09T01:14:04.487Z,103263.63
2023-02-09T01:16:32.816Z,103261.94
2023-02-09T01:19:02.793Z,103259.34
2023-02-09T01:21:31.530Z,103260.91
2023-02-09T01:23:59.815Z,103256.78
2023-02-09T01:26:27.860Z,103251.53
2023-02-09T01:28:56.489Z,103245.47
2023-02-09T01:31:31.545Z,103248.78
2023-02-09T01:34:02.546Z,103243.59
2023-02-09T01:36:31.499Z,103247.59
2023-02-09T01:39:02.565Z,103244.34
2023-02-09T01:41:31.613Z,103241.81
2023-02-09T01:44:06.937Z,103242.69
2023-02-09T01:46:36.701Z,103249.50
2023-02-09T01:49:08.844Z,103241.75
2023-02-09T01:51:41.703Z,103231.28
2023-02-09T01:54:15.746Z,103231.31
2023-02-09T01:56:48.510Z,103220.09
2023-02-09T01:59:17.671Z,103218.25
2023-02-09T02:01:46.170Z,103218.31
2023-02-09T02:04:14.954Z,103218.25
2023-02-09T02:06:43.373Z,103221.75
2023-02-09T02:09:17.016Z,103224.38
2023-02-09T02:11:47.702Z,103220.97
2023-02-09T02:14:37.142Z,103216.53
2023-02-09T02:17:46.801Z,103213.03
2023-02-09T02:20:41.900Z,103209.63
2023-02-09T02:23:13.034Z,103206.88
2023-02-09T02:25:49.526Z,103194.94
2023-02-09T02:28:55.110Z,103186.44
2023-02-09T02:31:55.465Z,103189.03
2023-02-09T02:34:42.949Z,103187.25
2023-02-09T02:37:32.804Z,103189.81
2023-02-09T02:40:25.607Z,103183.03
2023-02-09T02:43:07.665Z,103173.50
2023-02-09T02:46:11.905Z,103179.50
2023-02-09T02:49:01.389Z,103169.91
2023-02-09T02:51:37.408Z,103168.22
2023-02-09T02:54:09.585Z,103162.25
2023-02-09T02:56:42.872Z,103163.00
2023-02-09T02:59:17.932Z,103163.06
2023-02-09T03:02:27.037Z,103162.25
2023-02-09T03:04:57.083Z,103160.31
2023-02-09T03:07:25.231Z,103155.19
2023-02-09T03:09:55.664Z,103157.78
2023-02-09T03:12:35.401Z,103158.59
2023-02-09T03:15:15.230Z,103150.91
2023-02-09T03:17:52.380Z,103150.00
2023-02-09T03:20:37.960Z,103154.22
2023-02-09T03:23:10.444Z,103155.06
2023-02-09T03:25:45.109Z,103157.66
2023-02-09T03:28:19.788Z,103151.69
2023-02-09T03:30:50.150Z,103155.94
2023-02-09T03:33:27.589Z,103149.06
2023-02-09T03:35:59.745Z,103156.78
2023-02-09T03:38:27.752Z,103146.47
2023-02-09T03:40:55.964Z,103151.63
2023-02-09T03:43:46.991Z,103150.75
2023-02-09T03:46:15.109Z,103145.63
2023-02-09T03:48:42.658Z,103150.69
2023-02-09T03:51:10.467Z,103148.19
2023-02-09T03:53:39.013Z,103149.06
2023-02-09T03:56:10.051Z,103146.31
2023-02-09T03:58:37.919Z,103148.91
2023-02-09T04:01:10.524Z,103154.94
2023-02-09T04:03:39.909Z,103153.91
2023-02-09T04:06:10.123Z,103154.88
2023-02-09T04:08:38.220Z,103162.63
2023-02-09T04:11:05.833Z,103155.63
2023-02-09T04:13:33.581Z,103159.13
2023-02-09T04:16:01.591Z,103161.69
2023-02-09T04:18:30.114Z,103146.13
2023-02-09T04:20:58.792Z,103152.16
2023-02-09T04:23:26.508Z,103147.72
2023-02-09T04:25:54.331Z,103143.44
2023-02-09T04:28:22.681Z,103144.28
2023-02-09T04:30:56.015Z,103145.91
2023-02-09T04:33:25.245Z,103151.97
2023-02-09T04:35:53.222Z,103154.56
2023-02-09T04:38:22.384Z,103146.75
2023-02-09T04:40:51.905Z,103146.00
2023-02-09T04:43:20.521Z,103143.25
2023-02-09T04:45:48.802Z,103148.50
2023-02-09T04:48:18.969Z,103145.91
2023-02-09T04:50:47.695Z,103146.75
2023-02-09T04:53:16.590Z,103147.56
2023-02-09T04:55:45.549Z,103149.25
2023-02-09T04:58:37.029Z,103150.94
2023-02-09T05:01:05.968Z,103148.41
2023-02-09T05:03:34.242Z,103145.78
2023-02-09T05:06:04.759Z,103148.41
2023-02-09T05:08:32.994Z,103148.38
2023-02-09T05:11:01.259Z,103144.78
2023-02-09T05:13:29.723Z,103148.97
2023-02-09T05:15:57.251Z,103149.56
2023-02-09T05:18:25.719Z,103146.88
2023-02-09T05:20:53.808Z,103145.91
2023-02-09T05:23:21.933Z,103147.59
2023-02-09T05:25:49.447Z,103152.66
2023-02-09T05:28:17.340Z,103146.56
2023-02-09T05:30:45.734Z,103149.19
2023-02-09T05:33:13.425Z,103155.13
2023-02-09T05:35:41.448Z,103162.97
2023-02-09T05:38:09.436Z,103155.16
2023-02-09T05:40:37.432Z,103152.66
2023-02-09T05:43:05.858Z,103146.53
2023-02-09T05:45:33.872Z,103155.78
2023-02-09T05:48:01.796Z,103158.41
2023-02-09T05:50:29.979Z,103156.72
2023-02-09T05:53:01.149Z,103160.31
2023-02-09T05:55:29.272Z,103152.50
2023-02-09T05:57:57.139Z,103155.66
2023-02-09T06:00:27.108Z,103158.34
2023-02-09T06:02:54.792Z,103155.75
2023-02-09T06:05:22.937Z,103151.28
2023-02-09T06:07:51.629Z,103150.53
2023-02-09T06:10:20.649Z,103146.94
2023-02-09T06:12:48.274Z,103153.56
2023-02-09T06:15:16.678Z,103134.50
2023-02-09T06:17:45.404Z,103145.13
2023-02-09T06:20:13.170Z,103140.84
2023-02-09T06:22:40.871Z,103147.72
2023-02-09T06:25:09.592Z,103142.72
2023-02-09T06:27:37.537Z,103146.91
2023-02-09T06:30:06.427Z,103150.34
2023-02-09T06:32:34.574Z,103154.75
2023-02-09T06:35:02.215Z,103152.25
2023-02-09T06:37:30.226Z,103155.72
2023-02-09T06:39:57.819Z,103159.88
2023-02-09T06:42:43.768Z,103156.59
2023-02-09T06:45:13.499Z,103154.63
2023-02-09T06:47:45.275Z,103165.72
2023-02-09T06:50:14.901Z,103164.19
2023-02-09T06:52:43.882Z,103178.13
2023-02-09T06:55:12.897Z,103173.97
2023-02-09T06:57:41.068Z,103165.50
2023-02-09T07:00:10.228Z,103172.53
2023-02-09T07:02:38.218Z,103180.34
2023-02-09T07:05:06.083Z,103174.47
2023-02-09T07:07:33.638Z,103184.13
2023-02-09T07:10:01.668Z,103186.91
2023-02-09T07:12:29.368Z,103191.47
2023-02-09T07:14:57.796Z,103179.56
2023-02-09T07:17:25.882Z,103186.59
2023-02-09T07:19:53.859Z,103188.28
2023-02-09T07:22:22.807Z,103191.25
2023-02-09T07:24:50.427Z,103192.91
2023-02-09T07:27:19.066Z,103201.47
2023-02-09T07:29:47.677Z,103197.13
2023-02-09T07:32:16.251Z,103193.84
2023-02-09T07:34:43.984Z,103202.59
2023-02-09T07:37:11.613Z,103198.25
2023-02-09T07:39:39.257Z,103204.59
2023-02-09T07:42:06.951Z,103213.31
2023-02-09T07:44:49.433Z,103210.06
2023-02-09T07:47:27.283Z,103214.31
2023-02-09T07:50:07.277Z,103209.13
2023-02-09T07:52:34.793Z,103215.97
2023-02-09T07:55:03.993Z,103215.22
2023-02-09T07:57:33.114Z,103221.28
2023-02-09T08:00:00.621Z,103227.53
2023-02-09T08:02:35.130Z,103221.59
2023-02-09T08:05:04.360Z,103231.97
2023-02-09T08:07:32.345Z,103230.41
2023-02-09T08:09:59.974Z,103231.34
2023-02-09T08:12:48.615Z,103229.84
2023-02-09T08:15:21.345Z,103222.97
2023-02-09T08:17:55.674Z,103231.50
2023-02-09T08:20:27.812Z,103227.31
2023-02-09T08:23:04.145Z,103230.78
2023-02-09T08:25:32.992Z,103228.97
2023-02-09T08:28:12.576Z,103221.34
2023-02-09T08:30:40.255Z,103224.72
2023-02-09T08:33:07.850Z,103217.91
2023-02-09T08:35:35.436Z,103216.09
2023-02-09T08:38:04.090Z,103216.19
2023-02-09T08:40:32.896Z,103213.63
2023-02-09T08:43:01.481Z,103219.91
2023-02-09T08:45:29.202Z,103215.59
2023-02-09T08:48:00.718Z,103212.06
2023-02-09T08:50:28.756Z,103210.44
2023-02-09T08:52:58.001Z,103207.84
2023-02-09T08:55:26.057Z,103223.41
2023-02-09T08:57:54.115Z,103209.47
2023-02-09T09:00:22.193Z,103220.78
2023-02-09T09:02:49.857Z,103221.72
2023-02-09T09:05:17.855Z,103224.31
2023-02-09T09:07:45.487Z,103220.81
2023-02-09T09:10:13.823Z,103221.72
2023-02-09T09:12:41.773Z,103217.25
2023-02-09T09:15:10.268Z,103223.53
2023-02-09T09:17:37.940Z,103224.72
2023-02-09T09:20:07.044Z,103225.94
2023-02-09T09:22:35.486Z,103233.53
2023-02-09T09:25:04.868Z,103232.53
2023-02-09T09:27:35.021Z,103237.97
2023-02-09T09:30:05.375Z,103233.06
2023-02-09T09:32:33.507Z,103232.53
2023-02-09T09:35:03.445Z,103234.22
2023-02-09T09:37:31.499Z,103226.22
2023-02-09T09:40:00.614Z,103230.31
2023-02-09T09:42:36.362Z,103217.66
2023-02-09T09:45:07.881Z,103221.09
2023-02-09T09:47:39.448Z,103230.97
2023-02-09T09:50:17.796Z,103229.34
2023-02-09T09:52:56.425Z,103235.00
2023-02-09T09:55:28.988Z,103231.22
2023-02-09T09:58:01.625Z,103243.75
2023-02-09T10:00:36.260Z,103243.78
2023-02-09T10:03:04.974Z,103245.97
2023-02-09T10:05:40.233Z,103241.59
2023-02-09T10:08:10.954Z,103241.03
2023-02-09T10:10:49.719Z,103239.81
2023-02-09T10:13:40.074Z,103240.41
2023-02-09T10:16:21.003Z,103240.84
2023-02-09T10:18:54.496Z,103234.09
2023-02-09T10:21:28.342Z,103232.84
2023-02-09T10:24:02.007Z,103217.94
2023-02-09T10:26:33.889Z,103221.69
2023-02-09T10:29:25.811Z,103218.63
2023-02-09T10:31:58.961Z,103217.31
2023-02-09T10:34:41.091Z,103228.31
2023-02-09T10:37:15.069Z,103219.28
2023-02-09T10:39:42.851Z,103216.50
2023-02-09T10:42:21.820Z,103215.41
2023-02-09T10:44:53.771Z,103203.47
2023-02-09T10:47:21.238Z,103195.97
2023-02-09T10:50:11.234Z,103195.56
2023-02-09T10:52:44.854Z,103202.06
2023-02-09T10:55:25.728Z,103185.00
2023-02-09T10:58:04.968Z,103188.09
2023-02-09T11:00:46.073Z,103172.97
2023-02-09T11:03:20.780Z,103176.75
2023-02-09T11:06:00.110Z,103167.75
2023-02-09T11:08:47.425Z,103168.00
2023-02-09T11:11:24.746Z,103160.00
2023-02-09T11:13:52.547Z,103160.38
2023-02-09T11:16:32.409Z,103147.19
2023-02-09T11:19:15.166Z,103148.28
2023-02-09T11:21:46.539Z,103141.19
2023-02-09T11:24:19.862Z,103142.41
2023-02-09T11:26:54.186Z,103139.28
2023-02-09T11:29:30.880Z,103138.97
2023-02-09T11:32:18.612Z,103131.88
2023-02-09T11:35:04.785Z,103126.47
2023-02-09T11:37:59.410Z,103131.59
2023-02-09T11:40:37.248Z,103132.03
2023-02-09T11:43:15.599Z,103131.16
2023-02-09T11:46:04.607Z,103131.53
2023-02-09T11:48:37.099Z,103121.63
2023-02-09T11:51:04.800Z,103116.28
2023-02-09T11:53:56.706Z,103116.22
2023-02-09T11:56:28.463Z,103102.34
2023-02-09T11:59:08.098Z,103103.03
2023-02-09T12:01:41.505Z,103100.81
2023-02-09T12:04:24.740Z,103104.72
2023-02-09T12:07:03.967Z,103093.03
2023-02-09T12:09:52.050Z,103094.56
2023-02-09T12:12:33.103Z,103087.00
2023-02-09T12:15:10.570Z,103084.44
2023-02-09T12:17:57.450Z,103093.28
2023-02-09T12:20:27.980Z,103086.38
2023-02-09T12:23:01.532Z,103084.66
2023-02-09T12:25:51.651Z,103075.28
2023-02-09T12:28:35.067Z,103074.72
2023-02-09T12:31:07.415Z,103065.44
2023-02-09T12:33:39.724Z,103053.38
2023-02-09T12:36:08.107Z,103047.19
2023-02-09T12:39:03.872Z,103059.59
2023-02-09T12:41:35.413Z,103054.53
2023-02-09T12:44:11.916Z,103049.63
2023-02-09T12:46:48.411Z,103050.97
2023-02-09T12:49:21.012Z,103039.72
2023-02-09T12:51:54.624Z,103037.31
2023-02-09T12:54:52.332Z,103026.25
2023-02-09T12:57:22.810Z,103037.72
2023-02-09T13:00:03.559Z,103029.38
2023-02-09T13:02:49.689Z,103031.44
2023-02-09T13:05:39.996Z,103030.09
2023-02-09T13:08:13.776Z,103020.97
2023-02-09T13:10:44.763Z,103025.09
2023-02-09T13:13:17.472Z,103022.41
2023-02-09T13:16:07.478Z,103027.09
2023-02-09T13:19:05.644Z,103027.78
2023-02-09T13:21:57.755Z,103023.38
2023-02-09T13:24:56.650Z,103016.97
2023-02-09T13:27:26.514Z,103017.09
2023-02-09T13:29:59.448Z,103026.03
2023-02-09T13:33:09.092Z,103028.16
2023-02-09T13:36:01.814Z,103028.59
2023-02-09T13:38:33.875Z,103017.53
2023-02-09T13:41:02.790Z,103018.22
2023-02-09T13:43:40.384Z,103008.91
2023-02-09T13:46:24.698Z,103011.03
2023-02-09T13:48:52.831Z,103014.47
2023-02-09T13:51:21.116Z,103017.03
2023-02-09T13:53:56.939Z,103018.63
2023-02-09T13:56:26.309Z,103015.72
2023-02-09T13:58:56.426Z,103013.78
2023-02-09T14:01:36.357Z,103014.97
2023-02-09T14:04:11.263Z,103007.09
2023-02-09T14:06:50.660Z,103007.03
2023-02-09T14:09:25.100Z,103006.16
2023-02-09T14:12:12.792Z,103007.06
2023-02-09T14:15:09.275Z,103001.09
2023-02-09T14:17:39.045Z,102997.47
2023-02-09T14:20:21.477Z,102997.53
2023-02-09T14:23:00.382Z,102999.94
2023-02-09T14:25:31.348Z,102995.22
2023-02-09T14:27:59.098Z,102999.03
2023-02-09T14:30:32.129Z,103004.06
2023-02-09T14:33:03.452Z,102998.00
2023-02-09T14:35:39.646Z,103005.91
2023-02-09T14:38:42.730Z,102998.75
2023-02-09T14:41:30.444Z,102982.69
2023-02-09T14:44:00.340Z,102998.31
2023-02-09T14:46:45.522Z,102983.72
2023-02-09T14:49:13.605Z,102989.66
2023-02-09T14:51:42.857Z,102990.22
2023-02-09T14:54:22.989Z,102992.31
2023-02-09T14:56:53.346Z,102980.31
2023-02-09T14:59:22.103Z,102989.03
2023-02-09T15:01:53.478Z,102988.13
2023-02-09T15:04:22.406Z,102987.53
2023-02-09T15:07:00.712Z,102983.97
2023-02-09T15:09:37.908Z,102988.47
2023-02-09T15:12:07.214Z,102983.03
2023-02-09T15:14:46.387Z,102986.84
2023-02-09T15:17:15.542Z,102985.38
2023-02-09T15:19:45.211Z,102987.84
2023-02-09T15:22:16.310Z,102993.94
2023-02-09T15:24:46.504Z,103000.59
2023-02-09T15:27:26.223Z,103000.47
2023-02-09T15:29:58.982Z,102998.84
2023-02-09T15:32:29.324Z,103010.81
2023-02-09T15:34:56.902Z,103010.88
2023-02-09T15:37:35.049Z,103010.34
2023-02-09T15:40:12.957Z,103018.13
2023-02-09T15:43:01.169Z,103016.44
2023-02-09T15:45:49.559Z,103012.00
2023-02-09T15:48:17.203Z,103021.81
2023-02-09T15:50:48.363Z,103023.72
2023-02-09T15:53:19.392Z,103025.53
2023-02-09T15:55:48.381Z,103022.19
2023-02-09T15:58:20.654Z,103017.94
2023-02-09T16:00:48.929Z,103013.00
2023-02-09T16:03:19.343Z,103019.91
2023-02-09T16:05:51.038Z,103021.53
2023-02-09T16:08:28.306Z,103024.19
2023-02-09T16:10:57.500Z,103019.31
2023-02-09T16:13:26.728Z,103028.00
2023-02-09T16:15:58.247Z,103027.88
2023-02-09T16:18:32.531Z,103022.91
2023-02-09T16:21:00.302Z,103037.97
2023-02-09T16:23:29.299Z,103037.19
2023-02-09T16:26:01.629Z,103030.25
2023-02-09T16:28:31.253Z,103030.25
2023-02-09T16:30:59.813Z,103036.31
2023-02-09T16:33:27.508Z,103041.53
2023-02-09T16:35:58.948Z,103038.19
2023-02-09T16:38:27.356Z,103035.59
2023-02-09T16:40:56.526Z,103034.72
2023-02-09T16:43:24.834Z,103045.22
2023-02-09T16:46:03.330Z,103044.44
2023-02-09T16:48:34.660Z,103042.75
2023-02-09T16:51:03.056Z,103038.44
2023-02-09T16:53:37.173Z,103036.78
2023-02-09T16:56:10.461Z,103044.75
2023-02-09T16:58:39.876Z,103037.81
2023-02-09T17:01:17.946Z,103049.09
2023-02-09T17:03:52.224Z,103053.41
2023-02-09T17:06:23.266Z,103048.28
2023-02-09T17:08:51.296Z,103044.81
2023-02-09T17:11:22.272Z,103057.00
2023-02-09T17:13:50.506Z,103054.41
2023-02-09T17:16:22.060Z,103053.56
2023-02-09T17:18:53.888Z,103050.97
2023-02-09T17:21:27.719Z,103058.91
2023-02-09T17:23:59.360Z,103058.00
2023-02-09T17:26:28.297Z,103061.50
2023-02-09T17:28:56.209Z,103066.72
2023-02-09T17:31:28.848Z,103068.47
2023-02-09T17:33:59.761Z,103064.19
2023-02-09T17:36:29.531Z,103060.72
2023-02-09T17:38:59.719Z,103064.22
2023-02-09T17:41:34.009Z,103058.16
2023-02-09T17:44:22.241Z,103065.94
2023-02-09T17:46:55.432Z,103059.91
2023-02-09T17:49:23.476Z,103068.53
2023-02-09T17:51:53.041Z,103069.41
2023-02-09T17:54:21.448Z,103067.69
2023-02-09T17:56:49.513Z,103073.75
2023-02-09T17:59:19.956Z,103077.19
2023-02-09T18:01:51.669Z,103077.19
2023-02-09T18:04:26.885Z,103077.22
2023-02-09T18:06:57.540Z,103074.63
2023-02-09T18:09:26.365Z,103076.34
2023-02-09T18:12:03.978Z,103076.34
2023-02-09T18:14:33.607Z,103075.50
2023-02-09T18:17:02.747Z,103078.06
2023-02-09T18:19:33.104Z,103088.44
2023-02-09T18:22:02.412Z,103095.38
2023-02-09T18:24:32.563Z,103097.13
2023-02-09T18:27:01.074Z,103100.56
2023-02-09T18:29:30.357Z,103104.88
2023-02-09T18:32:03.072Z,103101.44
2023-02-09T18:34:31.136Z,103096.25
2023-02-09T18:36:59.498Z,103107.47
2023-02-09T18:39:27.112Z,103110.94
2023-02-09T18:41:56.302Z,103114.38
2023-02-09T18:44:29.190Z,103116.97
2023-02-09T18:46:58.101Z,103116.09
2023-02-09T18:49:25.849Z,103120.38
2023-02-09T18:51:53.947Z,103117.72
2023-02-09T18:54:22.235Z,103114.22
2023-02-09T18:56:50.416Z,103117.66
2023-02-09T18:59:18.526Z,103122.84
2023-02-09T19:01:46.868Z,103121.06
2023-02-09T19:04:15.012Z,103123.63
2023-02-09T19:06:42.562Z,103123.66
2023-02-09T19:09:11.291Z,103123.63
2023-02-09T19:11:39.037Z,103130.50
2023-02-09T19:14:26.417Z,103125.28
2023-02-09T19:16:54.735Z,103129.59
2023-02-09T19:19:22.731Z,103131.34
2023-02-09T19:21:54.528Z,103132.22
2023-02-09T19:24:23.519Z,103131.34
2023-02-09T19:26:51.066Z,103137.34
2023-02-09T19:29:18.780Z,103139.03
2023-02-09T19:31:46.587Z,103134.69
2023-02-09T19:34:14.689Z,103132.91
2023-02-09T19:36:43.930Z,103136.44
2023-02-09T19:39:12.695Z,103144.19
2023-02-09T19:41:40.810Z,103140.72
2023-02-09T19:44:08.637Z,103144.22
2023-02-09T19:46:36.718Z,103140.84
2023-02-09T19:49:04.511Z,103144.28
2023-02-09T19:51:32.572Z,103145.13
2023-02-09T19:54:00.737Z,103141.59
2023-02-09T19:56:29.854Z,103148.56
2023-02-09T19:58:57.962Z,103150.28
2023-02-09T20:01:27.071Z,103151.16
2023-02-09T20:03:54.773Z,103148.53
2023-02-09T20:06:22.969Z,103147.53
2023-02-09T20:08:51.770Z,103152.69
2023-02-09T20:11:20.738Z,103142.28
2023-02-09T20:13:52.743Z,103143.94
2023-02-09T20:16:24.819Z,103154.34
2023-02-09T20:18:53.970Z,103157.66
2023-02-09T20:21:23.778Z,103152.50
2023-02-09T20:23:56.228Z,103155.13
2023-02-09T20:26:29.495Z,103155.13
2023-02-09T20:28:58.777Z,103149.91
2023-02-09T20:31:29.631Z,103158.53
2023-02-09T20:33:58.257Z,103156.88
2023-02-09T20:36:26.344Z,103150.91
2023-02-09T20:38:54.030Z,103150.91
2023-02-09T20:41:22.641Z,103155.22
2023-02-09T20:44:09.242Z,103155.25
2023-02-09T20:47:00.328Z,103151.84
2023-02-09T20:49:31.389Z,103150.97
2023-02-09T20:51:59.547Z,103153.50
2023-02-09T20:54:27.721Z,103148.31
2023-02-09T20:56:55.686Z,103145.75
2023-02-09T20:59:24.171Z,103144.88
2023-02-09T21:01:52.242Z,103146.66
2023-02-09T21:04:19.969Z,103143.19
2023-02-09T21:06:48.978Z,103148.19
2023-02-09T21:09:16.814Z,103150.69
2023-02-09T21:11:45.029Z,103152.22
2023-02-09T21:14:21.918Z,103159.88
2023-02-09T21:17:00.861Z,103156.25
2023-02-09T21:19:29.631Z,103158.84
2023-02-09T21:21:57.763Z,103159.59
2023-02-09T21:24:26.078Z,103155.19
2023-02-09T21:26:53.895Z,103154.31
2023-02-09T21:29:21.801Z,103155.91
2023-02-09T21:31:51.381Z,103149.13
2023-02-09T21:34:19.810Z,103150.16
2023-02-09T21:36:47.777Z,103148.41
2023-02-09T21:39:16.318Z,103151.00
2023-02-09T21:42:03.037Z,103150.81
2023-02-09T21:44:31.766Z,103154.31
2023-02-09T21:47:00.686Z,103148.41
2023-02-09T21:49:31.780Z,103150.19
2023-02-09T21:52:00.466Z,103146.72
2023-02-09T21:54:33.197Z,103152.47
2023-02-09T21:57:02.253Z,103146.50
2023-02-09T21:59:30.176Z,103138.03
2023-02-09T22:01:58.783Z,103137.94
2023-02-09T22:04:26.410Z,103142.25
2023-02-09T22:06:54.738Z,103137.63
2023-02-09T22:09:24.025Z,103139.22
2023-02-09T22:11:52.015Z,103143.69
2023-02-09T22:14:20.107Z,103145.06
2023-02-09T22:16:47.671Z,103138.94
2023-02-09T22:19:15.449Z,103145.81
2023-02-09T22:21:43.504Z,103138.97
2023-02-09T22:24:13.840Z,103134.53
2023-02-09T22:26:41.925Z,103143.88
2023-02-09T22:29:11.891Z,103138.81
2023-02-09T22:31:43.378Z,103144.13
2023-02-09T22:34:11.722Z,103136.28
2023-02-09T22:36:39.906Z,103145.03
2023-02-09T22:39:08.752Z,103142.34
2023-02-09T22:41:37.581Z,103136.28
2023-02-09T22:44:08.461Z,103137.84
2023-02-09T22:46:38.564Z,103140.34
2023-02-09T22:49:09.835Z,103132.84
2023-02-09T22:51:37.560Z,103138.88
2023-02-09T22:54:06.540Z,103142.38
2023-02-09T22:56:34.195Z,103136.91
2023-02-09T22:59:02.342Z,103134.31
2023-02-09T23:01:30.768Z,103126.56
2023-02-09T23:03:58.948Z,103131.59
2023-02-09T23:06:30.011Z,103124.69
2023-02-09T23:09:03.035Z,103123.53
2023-02-09T23:11:32.065Z,103117.41
2023-02-09T23:14:09.138Z,103112.34
2023-02-09T23:16:40.787Z,103112.22
2023-02-09T23:19:13.034Z,103106.94
2023-02-09T23:21:43.595Z,103112.41
2023-02-09T23:24:12.718Z,103117.59
2023-02-09T23:26:41.531Z,103117.44
2023-02-09T23:29:13.065Z,103117.41
2023-02-09T23:31:41.550Z,103123.41
2023-02-09T23:34:13.787Z,103121.53
2023-02-09T23:36:41.666Z,103111.09
2023-02-09T23:39:13.651Z,103111.09
2023-02-09T23:41:42.241Z,103111.06
2023-02-09T23:44:11.569Z,103106.72
2023-02-09T23:46:39.919Z,103107.75
2023-02-09T23:49:07.509Z,103100.03
2023-02-09T23:51:36.695Z,103104.38
2023-02-09T23:54:06.299Z,103100.75
2023-02-09T23:56:37.374Z,103099.66
2023-02-09T23:59:12.028Z,103101.31
